Bungay, Illinois
Current Conditions -  °F | °C
As of 6:55 PM on Friday 28 Nov 2014 (Local Time) from KFWC Reporting Station
Clear Clear  
Wind Chill: 33°   Ceiling: Unl
Heat Index: 38°   Visibility: 10mi
Dew Point: 30°   Wind: 7mph
Humidity: 72%   Direction: 150°SSE
Pressure: 30.04"   Gusts: NA
Location:  38.1658°N, 88.3782°W
Report Text: KFWC 290055Z AUTO 15006KT 10SM CLR 04/M01 A3004 RMK AO1 T00361010
Loading
Personal Weather Stations






























Interactive Weather Map New forecast layout! Learn more

10-Day Weather Forecast

Advertisements
Track Severe Weather on mobile